createdAt,value
2023-03-10T00:00:39.098Z,968.70
2023-03-10T00:01:39.072Z,968.72
2023-03-10T00:02:39.078Z,968.69
2023-03-10T00:03:39.050Z,968.68
2023-03-10T00:04:39.160Z,968.66
2023-03-10T00:05:39.135Z,968.65
2023-03-10T00:06:39.028Z,968.62
2023-03-10T00:07:39.017Z,968.61
2023-03-10T00:08:39.010Z,968.57
2023-03-10T00:09:39.033Z,968.48
2023-03-10T00:10:38.980Z,968.46
2023-03-10T00:11:38.972Z,968.48
2023-03-10T00:12:38.976Z,968.44
2023-03-10T00:13:38.947Z,968.41
2023-03-10T00:14:38.935Z,968.46
2023-03-10T00:15:38.954Z,968.43
2023-03-10T00:16:38.925Z,968.40
2023-03-10T00:17:38.901Z,968.35
2023-03-10T00:18:38.918Z,968.29
2023-03-10T00:19:38.877Z,968.24
2023-03-10T00:20:38.866Z,968.27
2023-03-10T00:21:38.854Z,968.24
2023-03-10T00:22:38.857Z,968.16
2023-03-10T00:23:38.828Z,968.11
2023-03-10T00:24:38.826Z,968.16
2023-03-10T00:25:38.845Z,968.19
2023-03-10T00:26:38.805Z,968.16
2023-03-10T00:27:38.784Z,968.17
2023-03-10T00:28:38.777Z,968.11
2023-03-10T00:29:38.767Z,968.13
2023-03-10T00:30:38.771Z,968.12
2023-03-10T00:31:38.769Z,968.11
2023-03-10T00:32:38.823Z,968.07
2023-03-10T00:33:38.725Z,968.06
2023-03-10T00:34:38.728Z,968.08
2023-03-10T00:35:38.810Z,968.03
2023-03-10T00:36:38.695Z,968.00
2023-03-10T00:37:38.889Z,967.98
2023-03-10T00:38:38.670Z,968.02
2023-03-10T00:39:38.667Z,968.04
2023-03-10T00:40:38.659Z,967.99
2023-03-10T00:41:38.679Z,968.00
2023-03-10T00:42:38.636Z,968.03
2023-03-10T00:43:38.627Z,968.03
2023-03-10T00:44:38.612Z,968.09
2023-03-10T00:45:38.801Z,968.08
2023-03-10T00:46:38.834Z,968.16
2023-03-10T00:47:38.572Z,968.12
2023-03-10T00:48:38.564Z,968.14
2023-03-10T00:49:38.564Z,968.18
2023-03-10T00:50:38.543Z,968.16
2023-03-10T00:51:38.532Z,968.16
2023-03-10T00:52:38.525Z,968.09
2023-03-10T00:53:38.514Z,968.07
2023-03-10T00:54:38.509Z,968.00
2023-03-10T00:55:38.689Z,967.94
2023-03-10T00:56:38.477Z,967.94
2023-03-10T00:57:38.510Z,967.90
2023-03-10T00:58:38.464Z,967.84
2023-03-10T00:59:50.043Z,967.82
2023-03-10T01:00:38.437Z,967.82
2023-03-10T01:01:38.530Z,967.79
2023-03-10T01:02:38.442Z,967.71
2023-03-10T01:03:38.411Z,967.69
2023-03-10T01:04:38.446Z,967.69
2023-03-10T01:05:38.393Z,967.68
2023-03-10T01:06:38.372Z,967.66
2023-03-10T01:07:38.354Z,967.65
2023-03-10T01:08:38.347Z,967.64
2023-03-10T01:09:38.349Z,967.62
2023-03-10T01:10:38.332Z,967.57
2023-03-10T01:11:38.322Z,967.61
2023-03-10T01:12:38.300Z,967.61
2023-03-10T01:13:40.946Z,967.64
2023-03-10T01:14:38.285Z,967.60
2023-03-10T01:15:38.359Z,967.56
2023-03-10T01:16:38.262Z,967.53
2023-03-10T01:17:38.268Z,967.48
2023-03-10T01:18:38.234Z,967.48
2023-03-10T01:19:38.304Z,967.44
2023-03-10T01:20:38.222Z,967.44
2023-03-10T01:21:38.210Z,967.30
2023-03-10T01:22:38.188Z,967.35
2023-03-10T01:23:38.180Z,967.24
2023-03-10T01:24:38.169Z,967.22
2023-03-10T01:25:38.160Z,967.20
2023-03-10T01:26:38.158Z,967.16
2023-03-10T01:27:38.164Z,967.12
2023-03-10T01:28:38.127Z,967.09
2023-03-10T01:29:38.134Z,967.10
2023-03-10T01:30:38.310Z,967.09
2023-03-10T01:31:38.141Z,967.14
2023-03-10T01:32:38.138Z,967.12
2023-03-10T01:33:38.073Z,967.08
2023-03-10T01:34:38.060Z,967.11
2023-03-10T01:35:38.078Z,967.11
2023-03-10T01:36:38.044Z,967.11
2023-03-10T01:37:38.032Z,967.06
2023-03-10T01:38:38.013Z,967.03
2023-03-10T01:39:38.014Z,967.08
2023-03-10T01:40:37.988Z,967.06
2023-03-10T01:41:37.980Z,967.05
2023-03-10T01:42:37.999Z,966.98
2023-03-10T01:43:37.962Z,966.97
2023-03-10T01:44:37.953Z,966.97
2023-03-10T01:45:37.955Z,966.88
2023-03-10T01:46:38.062Z,966.94
2023-03-10T01:47:37.914Z,966.91
2023-03-10T01:48:37.903Z,966.91
2023-03-10T01:49:37.911Z,966.90
2023-03-10T01:50:37.884Z,966.83
2023-03-10T01:51:37.900Z,966.77
2023-03-10T01:52:37.887Z,966.75
2023-03-10T01:53:37.853Z,966.73
2023-03-10T01:54:37.834Z,966.74
2023-03-10T01:55:37.861Z,966.69
2023-03-10T01:56:37.818Z,966.73
2023-03-10T01:57:37.824Z,966.71
2023-03-10T01:58:37.790Z,966.67
2023-03-10T01:59:37.779Z,966.67
2023-03-10T02:00:37.831Z,966.62
2023-03-10T02:01:38.053Z,966.59
2023-03-10T02:02:37.746Z,966.53
2023-03-10T02:03:37.938Z,966.50
2023-03-10T02:04:37.723Z,966.53
2023-03-10T02:05:37.716Z,966.49
2023-03-10T02:06:37.704Z,966.51
2023-03-10T02:07:39.356Z,966.54
2023-03-10T02:08:37.682Z,966.50
2023-03-10T02:09:37.673Z,966.50
2023-03-10T02:10:37.664Z,966.47
2023-03-10T02:11:37.677Z,966.51
2023-03-10T02:12:37.653Z,966.48
2023-03-10T02:13:37.632Z,966.45
2023-03-10T02:14:37.625Z,966.50
2023-03-10T02:15:37.610Z,966.46
2023-03-10T02:16:37.695Z,966.44
2023-03-10T02:17:37.647Z,966.41
2023-03-10T02:18:37.583Z,966.43
2023-03-10T02:19:37.564Z,966.42
2023-03-10T02:20:37.557Z,966.41
2023-03-10T02:21:37.555Z,966.41
2023-03-10T02:22:37.530Z,966.36
2023-03-10T02:23:40.982Z,966.41
2023-03-10T02:24:37.513Z,966.40
2023-03-10T02:25:37.510Z,966.36
2023-03-10T02:26:37.503Z,966.32
2023-03-10T02:27:37.478Z,966.37
2023-03-10T02:28:37.474Z,966.31
2023-03-10T02:29:45.529Z,966.26
2023-03-10T02:30:37.468Z,966.23
2023-03-10T02:31:37.509Z,966.18
2023-03-10T02:32:37.521Z,966.21
2023-03-10T02:33:37.449Z,966.18
2023-03-10T02:34:37.402Z,966.19
2023-03-10T02:35:37.485Z,966.12
2023-03-10T02:36:37.408Z,966.13
2023-03-10T02:37:37.382Z,966.10
2023-03-10T02:38:37.358Z,966.06
2023-03-10T02:39:37.345Z,966.08
2023-03-10T02:40:37.392Z,966.09
2023-03-10T02:41:37.334Z,966.04
2023-03-10T02:42:37.313Z,965.94
2023-03-10T02:43:37.323Z,966.00
2023-03-10T02:44:37.370Z,965.98
2023-03-10T02:45:37.381Z,965.96
2023-03-10T02:46:37.299Z,965.99
2023-03-10T02:47:37.319Z,966.02
2023-03-10T02:48:37.253Z,966.00
2023-03-10T02:49:37.298Z,965.95
2023-03-10T02:50:37.239Z,965.90
2023-03-10T02:51:37.252Z,965.88
2023-03-10T02:52:37.284Z,965.91
2023-03-10T02:53:37.195Z,965.90
2023-03-10T02:54:37.187Z,965.87
2023-03-10T02:55:37.208Z,965.86
2023-03-10T02:56:37.164Z,965.78
2023-03-10T02:57:37.206Z,965.82
2023-03-10T02:58:37.155Z,965.85
2023-03-10T02:59:37.268Z,965.82
2023-03-10T03:00:37.193Z,965.84
2023-03-10T03:01:37.114Z,965.75
2023-03-10T03:02:37.163Z,965.77
2023-03-10T03:03:37.273Z,965.74
2023-03-10T03:04:37.102Z,965.76
2023-03-10T03:05:37.094Z,965.75
2023-03-10T03:06:37.132Z,965.73
2023-03-10T03:07:37.066Z,965.73
2023-03-10T03:08:37.037Z,965.71
2023-03-10T03:09:37.022Z,965.74
2023-03-10T03:10:37.010Z,965.72
2023-03-10T03:11:37.104Z,965.64
2023-03-10T03:12:37.015Z,965.68
2023-03-10T03:13:37.224Z,965.68
2023-03-10T03:14:37.038Z,965.69
2023-03-10T03:15:36.966Z,965.67
2023-03-10T03:16:36.971Z,965.66
2023-03-10T03:17:37.084Z,965.65
2023-03-10T03:18:36.922Z,965.68
2023-03-10T03:19:36.914Z,965.63
2023-03-10T03:20:36.914Z,965.64
2023-03-10T03:21:36.917Z,965.59
2023-03-10T03:22:36.902Z,965.59
2023-03-10T03:23:36.907Z,965.62
2023-03-10T03:24:36.982Z,965.60
2023-03-10T03:25:36.890Z,965.60
2023-03-10T03:26:36.913Z,965.60
2023-03-10T03:27:36.916Z,965.58
2023-03-10T03:28:36.820Z,965.61
2023-03-10T03:29:36.809Z,965.62
2023-03-10T03:30:36.907Z,965.57
2023-03-10T03:31:36.841Z,965.58
2023-03-10T03:32:36.868Z,965.60
2023-03-10T03:33:36.780Z,965.54
2023-03-10T03:34:36.761Z,965.49
2023-03-10T03:35:36.884Z,965.56
2023-03-10T03:36:36.754Z,965.47
2023-03-10T03:37:36.820Z,965.43
2023-03-10T03:38:36.787Z,965.43
2023-03-10T03:39:36.781Z,965.51
2023-03-10T03:40:36.758Z,965.48
2023-03-10T03:41:36.671Z,965.46
2023-03-10T03:42:36.720Z,965.49
2023-03-10T03:43:36.694Z,965.38
2023-03-10T03:44:36.648Z,965.45
2023-03-10T03:45:36.690Z,965.36
2023-03-10T03:46:36.845Z,965.32
2023-03-10T03:47:36.627Z,965.26
2023-03-10T03:48:36.605Z,965.26
2023-03-10T03:49:36.795Z,965.27
2023-03-10T03:50:36.705Z,965.25
2023-03-10T03:51:36.574Z,965.25
2023-03-10T03:52:36.648Z,965.23
2023-03-10T03:53:36.586Z,965.29
2023-03-10T03:54:36.538Z,965.27
2023-03-10T03:55:36.554Z,965.24
2023-03-10T03:56:36.528Z,965.22
2023-03-10T03:57:36.528Z,965.16
2023-03-10T03:58:36.500Z,965.22
2023-03-10T03:59:36.491Z,965.19
2023-03-10T04:00:36.548Z,965.13
2023-03-10T04:01:36.492Z,965.13
2023-03-10T04:02:36.544Z,965.12
2023-03-10T04:03:36.513Z,965.05
2023-03-10T04:04:36.427Z,965.09
2023-03-10T04:05:36.421Z,965.02
2023-03-10T04:06:36.426Z,965.04
2023-03-10T04:07:36.411Z,965.03
2023-03-10T04:08:36.385Z,965.01
2023-03-10T04:09:36.415Z,965.00
2023-03-10T04:10:36.457Z,965.02
2023-03-10T04:11:36.391Z,964.98
2023-03-10T04:12:36.756Z,964.99
2023-03-10T04:13:36.350Z,965.03
2023-03-10T04:14:36.462Z,965.00
2023-03-10T04:15:36.500Z,965.00
2023-03-10T04:16:36.322Z,964.98
2023-03-10T04:17:36.399Z,965.01
2023-03-10T04:18:36.327Z,965.01
2023-03-10T04:19:36.337Z,965.04
2023-03-10T04:20:36.258Z,965.09
2023-03-10T04:21:36.268Z,965.01
2023-03-10T04:22:36.239Z,965.03
2023-03-10T04:23:36.274Z,964.98
2023-03-10T04:24:36.221Z,965.03
2023-03-10T04:25:36.377Z,965.03
2023-03-10T04:26:36.222Z,964.97
2023-03-10T04:27:36.190Z,964.97
2023-03-10T04:28:36.211Z,964.97
2023-03-10T04:29:36.188Z,964.92
2023-03-10T04:30:36.162Z,964.91
2023-03-10T04:31:36.296Z,964.94
2023-03-10T04:32:36.465Z,964.90
2023-03-10T04:33:36.250Z,964.87
2023-03-10T04:34:36.111Z,964.88
2023-03-10T04:35:36.199Z,964.86
2023-03-10T04:36:36.183Z,964.89
2023-03-10T04:37:36.090Z,964.87
2023-03-10T04:38:36.077Z,964.90
2023-03-10T04:39:36.164Z,964.86
2023-03-10T04:40:36.075Z,964.85
2023-03-10T04:41:36.248Z,964.84
2023-03-10T04:42:36.036Z,964.85
2023-03-10T04:43:36.016Z,964.81
2023-03-10T04:44:36.041Z,964.78
2023-03-10T04:45:36.001Z,964.78
2023-03-10T04:46:36.046Z,964.76
2023-03-10T04:47:35.978Z,964.75
2023-03-10T04:48:36.362Z,964.77
2023-03-10T04:49:35.958Z,964.73
2023-03-10T04:50:35.963Z,964.73
2023-03-10T04:51:35.937Z,964.75
2023-03-10T04:52:35.920Z,964.71
2023-03-10T04:53:35.976Z,964.70
2023-03-10T04:54:35.918Z,964.71
2023-03-10T04:55:35.888Z,964.76
2023-03-10T04:56:35.889Z,964.77
2023-03-10T04:57:35.933Z,964.72
2023-03-10T04:58:35.867Z,964.73
2023-03-10T05:00:36.021Z,964.74
2023-03-10T05:01:35.896Z,964.72
2023-03-10T05:02:35.904Z,964.73
2023-03-10T05:03:35.803Z,964.72
2023-03-10T05:04:35.894Z,964.71
2023-03-10T05:05:37.549Z,964.75
2023-03-10T05:06:35.767Z,964.79
2023-03-10T05:07:35.761Z,964.78
2023-03-10T05:08:35.742Z,964.79
2023-03-10T05:09:35.832Z,964.86
2023-03-10T05:10:35.746Z,964.85
2023-03-10T05:11:35.724Z,964.83
2023-03-10T05:12:35.809Z,964.87
2023-03-10T05:13:35.811Z,964.92
2023-03-10T05:14:35.678Z,964.91
2023-03-10T05:15:35.698Z,964.88
2023-03-10T05:16:35.737Z,964.89
2023-03-10T05:17:35.830Z,964.88
2023-03-10T05:18:35.645Z,964.89
2023-03-10T05:19:35.845Z,964.86
2023-03-10T05:20:35.632Z,964.86
2023-03-10T05:21:35.837Z,964.91
2023-03-10T05:22:35.621Z,964.88
2023-03-10T05:23:35.665Z,964.92
2023-03-10T05:24:35.821Z,964.91
2023-03-10T05:25:35.559Z,964.94
2023-03-10T05:26:35.852Z,964.91
2023-03-10T05:27:35.548Z,964.87
2023-03-10T05:28:35.541Z,964.93
2023-03-10T05:29:35.608Z,964.93
2023-03-10T05:30:35.514Z,964.86
2023-03-10T05:31:35.651Z,964.85
2023-03-10T05:32:35.581Z,964.85
2023-03-10T05:33:35.480Z,964.85
2023-03-10T05:34:35.532Z,964.74
2023-03-10T05:35:35.512Z,964.74
2023-03-10T05:36:35.457Z,964.76
2023-03-10T05:37:35.472Z,964.74
2023-03-10T05:38:35.451Z,964.79
2023-03-10T05:39:35.437Z,964.78
2023-03-10T05:40:35.456Z,964.74
2023-03-10T05:41:35.425Z,964.79
2023-03-10T05:42:35.404Z,964.77
2023-03-10T05:43:35.384Z,964.77
2023-03-10T05:44:35.378Z,964.80
2023-03-10T05:45:35.384Z,964.79
2023-03-10T05:46:35.432Z,964.77
2023-03-10T05:47:35.340Z,964.72
2023-03-10T05:48:35.333Z,964.76
2023-03-10T05:49:37.394Z,964.81
2023-03-10T05:50:35.321Z,964.77
2023-03-10T05:51:35.297Z,964.80
2023-03-10T05:52:35.492Z,964.77
2023-03-10T05:53:35.303Z,964.72
2023-03-10T05:54:35.280Z,964.70
2023-03-10T05:55:35.258Z,964.69
2023-03-10T05:56:35.259Z,964.73
2023-03-10T05:57:35.272Z,964.81
2023-03-10T05:58:35.301Z,964.78
2023-03-10T05:59:35.201Z,964.75
2023-03-10T06:00:35.219Z,964.78
2023-03-10T06:01:35.209Z,964.80
2023-03-10T06:02:35.181Z,964.86
2023-03-10T06:03:35.347Z,964.82
2023-03-10T06:04:35.168Z,964.81
2023-03-10T06:05:35.183Z,964.83
2023-03-10T06:06:35.171Z,964.81
2023-03-10T06:07:35.122Z,964.86
2023-03-10T06:08:35.121Z,964.86
2023-03-10T06:09:35.183Z,964.87
2023-03-10T06:10:35.123Z,964.88
2023-03-10T06:11:35.101Z,964.85
2023-03-10T06:12:35.072Z,964.84
2023-03-10T06:13:35.064Z,964.87
2023-03-10T06:14:35.070Z,964.84
2023-03-10T06:15:35.057Z,964.86
2023-03-10T06:16:35.140Z,964.85
2023-03-10T06:17:35.039Z,964.78
2023-03-10T06:18:35.033Z,964.82
2023-03-10T06:19:35.042Z,964.76
2023-03-10T06:20:34.996Z,964.77
2023-03-10T06:21:35.013Z,964.70
2023-03-10T06:22:35.185Z,964.78
2023-03-10T06:23:34.975Z,964.81
2023-03-10T06:24:34.949Z,964.81
2023-03-10T06:25:34.933Z,964.77
2023-03-10T06:26:34.946Z,964.83
2023-03-10T06:27:34.926Z,964.88
2023-03-10T06:28:34.915Z,964.86
2023-03-10T06:29:34.953Z,964.87
2023-03-10T06:30:35.123Z,964.89
2023-03-10T06:31:34.956Z,964.85
2023-03-10T06:32:35.008Z,964.88
2023-03-10T06:33:34.890Z,964.88
2023-03-10T06:34:34.900Z,964.89
2023-03-10T06:35:34.969Z,964.80
2023-03-10T06:36:34.842Z,964.82
2023-03-10T06:37:34.842Z,964.88
2023-03-10T06:38:34.826Z,964.91
2023-03-10T06:39:34.792Z,964.88
2023-03-10T06:40:34.812Z,964.84
2023-03-10T06:41:34.791Z,964.87
2023-03-10T06:42:34.765Z,964.82
2023-03-10T06:43:34.785Z,964.84
2023-03-10T06:44:34.769Z,964.82
2023-03-10T06:45:34.778Z,964.86
2023-03-10T06:46:34.730Z,964.86
2023-03-10T06:47:34.752Z,964.90
2023-03-10T06:48:34.724Z,964.87
2023-03-10T06:49:34.734Z,964.90
2023-03-10T06:50:34.745Z,964.87
2023-03-10T06:51:34.682Z,964.99
2023-03-10T06:52:34.671Z,964.98
2023-03-10T06:53:34.700Z,964.93
2023-03-10T06:54:34.630Z,964.93
2023-03-10T06:55:34.645Z,964.96
2023-03-10T06:56:34.658Z,964.94
2023-03-10T06:57:34.640Z,964.93
2023-03-10T06:58:34.629Z,964.93
2023-03-10T06:59:34.579Z,964.94
2023-03-10T07:00:34.622Z,964.93
2023-03-10T07:01:34.628Z,964.97
2023-03-10T07:02:34.567Z,965.01
2023-03-10T07:03:34.561Z,965.02
2023-03-10T07:04:34.609Z,965.01
2023-03-10T07:05:34.569Z,965.00
2023-03-10T07:06:34.522Z,965.01
2023-03-10T07:07:34.502Z,964.97
2023-03-10T07:08:34.507Z,965.03
2023-03-10T07:09:34.510Z,964.94
2023-03-10T07:10:34.466Z,964.96
2023-03-10T07:11:34.493Z,965.04
2023-03-10T07:12:34.491Z,965.05
2023-03-10T07:13:34.479Z,965.26
2023-03-10T07:14:34.457Z,965.37
2023-03-10T07:15:34.412Z,965.37
2023-03-10T07:16:34.469Z,965.36
2023-03-10T07:17:34.437Z,965.31
2023-03-10T07:18:34.411Z,965.33
2023-03-10T07:19:34.383Z,965.32
2023-03-10T07:20:34.376Z,965.27
2023-03-10T07:21:34.433Z,965.34
2023-03-10T07:22:34.372Z,965.31
2023-03-10T07:23:34.374Z,965.26
2023-03-10T07:24:34.379Z,965.23
2023-03-10T07:25:34.376Z,965.26
2023-03-10T07:26:34.351Z,965.01
2023-03-10T07:27:34.362Z,965.02
2023-03-10T07:28:34.321Z,965.03
2023-03-10T07:29:36.942Z,965.02
2023-03-10T07:30:34.419Z,964.99
2023-03-10T07:31:34.308Z,964.99
2023-03-10T07:32:34.379Z,965.01
2023-03-10T07:33:34.308Z,965.06
2023-03-10T07:34:34.328Z,965.19
2023-03-10T07:35:36.769Z,965.14
2023-03-10T07:36:34.304Z,965.15
2023-03-10T07:37:34.358Z,965.23
2023-03-10T07:38:34.338Z,965.30
2023-03-10T07:39:34.314Z,965.33
2023-03-10T07:40:34.315Z,965.43
2023-03-10T07:41:34.272Z,965.51
2023-03-10T07:42:34.316Z,965.37
2023-03-10T07:43:34.301Z,965.59
2023-03-10T07:44:34.327Z,965.31
2023-03-10T07:45:34.297Z,965.64
2023-03-10T07:46:34.428Z,965.59
2023-03-10T07:47:34.483Z,965.61
2023-03-10T07:48:34.269Z,965.57
2023-03-10T07:49:34.496Z,965.63
2023-03-10T07:50:34.270Z,965.39
2023-03-10T07:51:34.269Z,965.32
2023-03-10T07:52:34.262Z,965.39
2023-03-10T07:53:34.263Z,965.27
2023-03-10T07:54:34.233Z,965.20
2023-03-10T07:55:34.248Z,965.07
2023-03-10T07:56:34.273Z,965.15
2023-03-10T07:57:34.233Z,965.08
2023-03-10T07:58:34.426Z,965.08
2023-03-10T07:59:34.258Z,965.03
2023-03-10T08:00:34.217Z,964.97
2023-03-10T08:01:34.214Z,965.05
2023-03-10T08:02:34.231Z,965.18
2023-03-10T08:03:34.354Z,965.06
2023-03-10T08:04:34.382Z,965.12
2023-03-10T08:05:34.187Z,965.17
2023-03-10T08:06:34.189Z,965.11
2023-03-10T08:07:34.198Z,965.16
2023-03-10T08:08:34.192Z,965.18
2023-03-10T08:09:34.213Z,965.21
2023-03-10T08:10:34.215Z,965.20
2023-03-10T08:11:34.159Z,965.23
2023-03-10T08:12:34.207Z,965.22
2023-03-10T08:13:34.268Z,965.31
2023-03-10T08:14:34.160Z,965.19
2023-03-10T08:15:34.223Z,965.23
2023-03-10T08:16:34.148Z,965.24
2023-03-10T08:17:34.146Z,965.32
2023-03-10T08:18:34.122Z,965.32
2023-03-10T08:19:34.185Z,965.25
2023-03-10T08:20:34.109Z,965.30
2023-03-10T08:21:34.138Z,965.26
2023-03-10T08:22:34.143Z,965.31
2023-03-10T08:23:34.332Z,965.28
2023-03-10T08:24:34.323Z,965.28
2023-03-10T08:25:34.144Z,965.27
2023-03-10T08:26:34.266Z,965.30
2023-03-10T08:27:34.117Z,965.31
2023-03-10T08:28:34.059Z,965.30
2023-03-10T08:29:34.077Z,965.29
2023-03-10T08:30:34.063Z,965.26
2023-03-10T08:31:34.115Z,965.31
2023-03-10T08:32:34.449Z,965.26
2023-03-10T08:33:34.037Z,965.23
2023-03-10T08:34:34.049Z,965.21
2023-03-10T08:35:34.058Z,965.23
2023-03-10T08:36:34.034Z,965.20
2023-03-10T08:37:34.030Z,965.16
2023-03-10T08:38:34.052Z,965.20
2023-03-10T08:39:33.969Z,965.13
2023-03-10T08:40:34.018Z,965.13
2023-03-10T08:41:36.203Z,965.15
2023-03-10T08:42:33.990Z,965.14
2023-03-10T08:43:33.970Z,965.12
2023-03-10T08:44:34.175Z,965.16
2023-03-10T08:45:33.960Z,965.17
2023-03-10T08:46:33.972Z,965.18
2023-03-10T08:47:33.943Z,965.14
2023-03-10T08:48:33.939Z,965.18
2023-03-10T08:49:33.944Z,965.21
2023-03-10T08:50:33.900Z,965.24
2023-03-10T08:51:33.911Z,965.29
2023-03-10T08:52:33.895Z,965.20
2023-03-10T08:53:33.888Z,965.27
2023-03-10T08:54:33.891Z,965.26
2023-03-10T08:55:33.877Z,965.22
2023-03-10T08:56:33.895Z,965.24
2023-03-10T08:57:33.899Z,965.28
2023-03-10T08:58:33.892Z,965.13
2023-03-10T08:59:33.864Z,965.16
2023-03-10T09:00:33.852Z,965.15
2023-03-10T09:01:33.945Z,965.14
2023-03-10T09:02:33.842Z,965.15
2023-03-10T09:03:33.922Z,965.17
2023-03-10T09:04:33.839Z,965.13
2023-03-10T09:05:33.831Z,965.17
2023-03-10T09:06:33.839Z,965.10
2023-03-10T09:07:33.846Z,965.13
2023-03-10T09:08:33.811Z,965.16
2023-03-10T09:09:33.828Z,965.17
2023-03-10T09:10:33.842Z,965.14
2023-03-10T09:11:33.803Z,965.15
2023-03-10T09:12:37.649Z,965.25
2023-03-10T09:13:33.813Z,965.23
2023-03-10T09:14:33.799Z,965.20
2023-03-10T09:15:33.797Z,965.28
2023-03-10T09:16:33.915Z,965.33
2023-03-10T09:17:33.780Z,965.22
2023-03-10T09:18:33.801Z,965.22
2023-03-10T09:19:33.790Z,965.26
2023-03-10T09:20:33.789Z,965.32
2023-03-10T09:21:33.989Z,965.33
2023-03-10T09:22:33.780Z,965.36
2023-03-10T09:23:33.784Z,965.30
2023-03-10T09:24:33.756Z,965.39
2023-03-10T09:25:34.391Z,965.43
2023-03-10T09:26:33.764Z,965.32
2023-03-10T09:27:36.385Z,965.40
2023-03-10T09:28:33.751Z,965.36
2023-03-10T09:29:42.946Z,965.49
2023-03-10T09:30:33.737Z,965.54
2023-03-10T09:31:33.855Z,965.43
2023-03-10T09:32:33.806Z,965.47
2023-03-10T09:33:33.749Z,965.47
2023-03-10T09:34:33.736Z,965.48
2023-03-10T09:35:33.820Z,965.46
2023-03-10T09:36:33.817Z,965.48
2023-03-10T09:37:33.714Z,965.48
2023-03-10T09:38:33.729Z,965.51
2023-03-10T09:39:34.845Z,965.45
2023-03-10T09:40:33.709Z,965.49
2023-03-10T09:41:36.372Z,965.46
2023-03-10T09:42:37.821Z,965.40
2023-03-10T09:43:33.685Z,965.43
2023-03-10T09:44:33.692Z,965.43
2023-03-10T09:45:33.797Z,965.42
2023-03-10T09:46:33.706Z,965.43
2023-03-10T09:47:33.693Z,965.39
2023-03-10T09:48:33.723Z,965.32
2023-03-10T09:49:33.721Z,965.41
2023-03-10T09:50:33.716Z,965.41
2023-03-10T09:51:33.686Z,965.38
2023-03-10T09:52:33.694Z,965.34
2023-03-10T09:53:33.705Z,965.36
2023-03-10T09:54:33.659Z,965.28
2023-03-10T09:55:33.998Z,965.36
2023-03-10T09:56:33.668Z,965.23
2023-03-10T09:57:33.661Z,965.24
2023-03-10T09:58:33.691Z,965.26
2023-03-10T09:59:33.688Z,965.17
2023-03-10T10:00:33.684Z,965.16
2023-03-10T10:01:33.650Z,965.19
2023-03-10T10:02:33.638Z,965.22
2023-03-10T10:03:42.980Z,965.21
2023-03-10T10:04:33.704Z,965.22
2023-03-10T10:05:33.706Z,965.20
2023-03-10T10:06:33.642Z,965.21
2023-03-10T10:07:33.649Z,965.27
2023-03-10T10:08:33.601Z,965.30
2023-03-10T10:09:33.631Z,965.33
2023-03-10T10:10:33.628Z,965.24
2023-03-10T10:11:33.615Z,965.33
2023-03-10T10:12:33.591Z,965.39
2023-03-10T10:13:33.568Z,965.31
2023-03-10T10:14:33.560Z,965.30
2023-03-10T10:15:35.619Z,965.38
2023-03-10T10:16:34.981Z,965.33
2023-03-10T10:17:35.458Z,965.29
2023-03-10T10:18:33.593Z,965.40
2023-03-10T10:19:36.638Z,965.38
2023-03-10T10:20:33.564Z,965.30
2023-03-10T10:21:42.321Z,965.36
2023-03-10T10:22:33.531Z,965.41
2023-03-10T10:23:33.531Z,965.42
2023-03-10T10:24:33.519Z,965.43
2023-03-10T10:25:33.525Z,965.38
2023-03-10T10:26:33.500Z,965.38
2023-03-10T10:27:33.529Z,965.47
2023-03-10T10:28:33.516Z,965.42
2023-03-10T10:29:33.474Z,965.41
2023-03-10T10:30:33.547Z,965.41
2023-03-10T10:31:35.933Z,965.45
2023-03-10T10:32:33.549Z,965.45
2023-03-10T10:33:33.483Z,965.42
2023-03-10T10:34:33.454Z,965.41
2023-03-10T10:35:33.511Z,965.44
2023-03-10T10:36:33.449Z,965.36
2023-03-10T10:37:36.947Z,965.40
2023-03-10T10:38:33.420Z,965.37
2023-03-10T10:39:33.441Z,965.40
2023-03-10T10:40:33.423Z,965.46
2023-03-10T10:41:33.380Z,965.38
2023-03-10T10:42:33.376Z,965.35
2023-03-10T10:43:35.623Z,965.39
2023-03-10T10:44:33.584Z,965.40
2023-03-10T10:45:33.410Z,965.29
2023-03-10T10:46:33.405Z,965.31
2023-03-10T10:47:33.391Z,965.22
2023-03-10T10:48:33.566Z,965.26
2023-03-10T10:49:33.390Z,965.26
2023-03-10T10:50:33.371Z,965.19
2023-03-10T10:51:33.334Z,965.23
2023-03-10T10:52:33.361Z,965.26
2023-03-10T10:53:33.347Z,965.29
2023-03-10T10:54:33.317Z,965.22
2023-03-10T10:55:33.311Z,965.27
2023-03-10T10:56:33.313Z,965.27
2023-03-10T10:57:33.282Z,965.26
2023-03-10T10:58:33.308Z,965.22
2023-03-10T10:59:33.273Z,965.23
2023-03-10T11:00:33.311Z,965.24
2023-03-10T11:01:33.321Z,965.17
2023-03-10T11:02:33.338Z,965.16
2023-03-10T11:03:33.600Z,965.13
2023-03-10T11:04:33.269Z,965.08
2023-03-10T11:05:33.270Z,965.05
2023-03-10T11:06:33.224Z,965.01
2023-03-10T11:07:33.268Z,964.97
2023-03-10T11:08:33.209Z,965.00
2023-03-10T11:09:33.207Z,965.10
2023-03-10T11:10:33.225Z,965.05
2023-03-10T11:11:33.193Z,965.06
2023-03-10T11:12:33.181Z,965.06
2023-03-10T11:13:33.186Z,965.03
2023-03-10T11:14:33.232Z,965.04
2023-03-10T11:15:33.245Z,965.03
2023-03-10T11:16:33.176Z,965.03
2023-03-10T11:17:33.232Z,965.08
2023-03-10T11:18:33.143Z,965.04
2023-03-10T11:19:33.148Z,965.06
2023-03-10T11:20:33.137Z,964.99
2023-03-10T11:21:33.141Z,965.08
2023-03-10T11:22:33.137Z,965.03
2023-03-10T11:23:33.091Z,965.11
2023-03-10T11:24:33.087Z,965.01
2023-03-10T11:25:33.293Z,965.07
2023-03-10T11:26:33.076Z,965.09
2023-03-10T11:27:33.059Z,965.08
2023-03-10T11:28:33.260Z,965.08
2023-03-10T11:29:33.148Z,965.10
2023-03-10T11:30:33.054Z,965.07
2023-03-10T11:31:33.118Z,965.07
2023-03-10T11:32:33.059Z,965.10
2023-03-10T11:33:33.036Z,965.11
2023-03-10T11:34:33.034Z,965.00
2023-03-10T11:35:33.083Z,965.05
2023-03-10T11:36:33.940Z,965.03
2023-03-10T11:37:33.053Z,965.09
2023-03-10T11:38:32.989Z,965.06
2023-03-10T11:39:32.983Z,965.15
2023-03-10T11:40:32.968Z,965.02
2023-03-10T11:41:32.969Z,965.11
2023-03-10T11:42:32.985Z,965.03
2023-03-10T11:43:32.958Z,965.03
2023-03-10T11:44:32.950Z,965.02
2023-03-10T11:45:32.928Z,964.98
2023-03-10T11:46:33.052Z,965.00
2023-03-10T11:47:32.910Z,965.00
2023-03-10T11:48:32.907Z,965.00
2023-03-10T11:49:32.897Z,965.00
2023-03-10T11:50:32.892Z,965.02
2023-03-10T11:51:33.091Z,965.00
2023-03-10T11:52:32.878Z,964.99
2023-03-10T11:53:32.913Z,965.02
2023-03-10T11:54:32.859Z,965.02
2023-03-10T11:55:32.852Z,964.96
2023-03-10T11:56:32.845Z,964.93
2023-03-10T11:57:32.833Z,964.93
2023-03-10T11:58:32.838Z,964.91
2023-03-10T11:59:32.857Z,964.89
2023-03-10T12:00:33.034Z,964.87
2023-03-10T12:01:32.797Z,964.83
2023-03-10T12:02:32.799Z,964.85
2023-03-10T12:03:32.832Z,964.84
2023-03-10T12:04:32.792Z,964.84
2023-03-10T12:05:32.813Z,964.80
2023-03-10T12:06:32.764Z,964.80
2023-03-10T12:07:32.752Z,964.81
2023-03-10T12:08:32.749Z,964.82
2023-03-10T12:09:32.767Z,964.79
2023-03-10T12:10:32.751Z,964.78
2023-03-10T12:11:32.741Z,964.77
2023-03-10T12:12:32.729Z,964.79
2023-03-10T12:13:32.936Z,964.78
2023-03-10T12:14:32.730Z,964.81
2023-03-10T12:15:32.688Z,964.82
2023-03-10T12:16:33.040Z,964.87
2023-03-10T12:17:32.693Z,964.91
2023-03-10T12:18:32.697Z,964.91
2023-03-10T12:19:32.657Z,964.91
2023-03-10T12:20:32.868Z,964.92
2023-03-10T12:21:32.679Z,964.94
2023-03-10T12:22:32.663Z,964.91
2023-03-10T12:23:32.635Z,964.90
2023-03-10T12:24:32.622Z,964.90
2023-03-10T12:25:32.659Z,964.94
2023-03-10T12:26:32.606Z,964.82
2023-03-10T12:27:32.599Z,964.83
2023-03-10T12:28:32.585Z,964.79
2023-03-10T12:29:32.584Z,964.77